Time;durP1;ratioP1;P1;durP2;ratioP2;P2;SDS_P1;SDS_P2;PMS_P1;PMS_P2;Temp;Humidity;BMP_temperature;BMP_pressure;BME280_temperature;BME280_humidity;BME280_pressure;Samples;Min_cycle;Max_cycle;Signal;HPM_P1;HPM_P2
2022/02/05 00:00:32;;;;;;;;;;;7.40;99.90;7.90;100064.00;;;;342871;28;85098;-86
2022/02/05 00:00:46;;;;;;;;;;;7.40;99.90;7.90;100062.00;;;;342955;28;82645;-86
2022/02/05 00:01:05;;;;;;;;;;;7.40;99.90;7.90;100056.00;;;;344177;28;87644;-86
2022/02/05 00:01:27;;;;;;;;;;;7.40;99.90;7.90;100056.00;;;;344162;28;82346;-86
2022/02/05 00:01:47;;;;;;;;;;;7.40;99.90;7.90;100062.00;;;;345398;28;86614;-85
2022/02/05 00:02:05;;;;;;;;;;;7.40;99.90;8.00;100064.00;;;;345140;28;83352;-85
2022/02/05 00:02:20;;;;;;;;;;;7.40;99.90;8.00;100057.00;;;;345424;28;88090;-86
2022/02/05 00:02:39;;;;;;;;;;;7.40;99.90;8.00;100060.00;;;;344278;28;83348;-86
2022/02/05 00:03:44;;;;;;;;;;;7.50;99.90;8.00;100067.00;;;;345316;28;82413;-86
2022/02/05 00:03:49;;;;;;;;;;;7.40;99.90;8.00;100056.00;;;;344383;28;88414;-86
2022/02/05 00:04:07;;;;;;;;;;;7.50;99.90;8.00;100065.00;;;;344250;28;83375;-86
2022/02/05 00:04:19;;;;;;;;;;;7.50;99.90;8.10;100059.00;;;;345523;28;85257;-86
2022/02/05 00:04:33;;;;;;;;;;;7.50;99.90;8.00;100063.00;;;;345643;28;83272;-86
2022/02/05 00:04:46;;;;;;;;;;;7.50;99.90;8.00;100065.00;;;;342773;28;85305;-86
2022/02/05 00:04:59;;;;;;;;;;;7.50;99.90;8.00;100068.00;;;;342957;28;83427;-85
2022/02/05 00:05:13;;;;;;;;;;;7.50;99.90;8.00;100061.00;;;;345573;28;85314;-85
2022/02/05 00:05:37;;;;;;;;;;;7.50;99.90;7.90;100077.00;;;;346846;28;83471;-85
2022/02/05 00:06:05;;;;;;;;;;;7.50;99.90;8.00;100069.00;;;;342662;28;83574;-85
2022/02/05 00:06:21;;;;;;;;;;;7.50;99.90;7.90;100062.00;;;;340629;28;83882;-86
2022/02/05 00:06:36;;;;;;;;;;;7.50;99.90;7.90;100068.00;;;;343237;28;83214;-86
2022/02/05 00:06:52;;;;;;;;;;;7.50;99.90;7.80;100066.00;;;;342971;28;83188;-85
2022/02/05 00:07:06;;;;;;;;;;;7.40;99.90;7.80;100058.00;;;;344826;28;82328;-86
2022/02/05 00:07:18;;;;;;;;;;;7.50;99.90;7.80;100061.00;;;;345879;28;84831;-85
2022/02/05 00:07:34;;;;;;;;;;;7.50;99.90;7.80;100055.00;;;;346039;28;83224;-86
2022/02/05 00:07:54;;;;;;;;;;;7.50;99.90;7.80;100063.00;;;;346007;28;87408;-86
2022/02/05 00:08:33;;;;;;;;;;;7.50;99.90;7.80;100063.00;;;;344660;28;83910;-86
2022/02/05 00:09:02;;;;;;;;;;;7.50;99.90;7.70;100056.00;;;;343274;28;83446;-86
2022/02/05 00:09:33;;;;;;;;;;;7.50;99.90;7.80;100058.00;;;;343089;28;86622;-86
2022/02/05 00:10:47;;;;;;;;;;;7.40;99.90;7.80;100060.00;;;;341680;28;83430;-86
2022/02/05 00:12:27;;;;;;;;;;;7.40;99.90;7.90;100064.00;;;;339091;28;85202;-87
2022/02/05 00:13:50;;;;;;;;;;;7.50;99.90;8.00;100059.00;;;;339266;28;83219;-86
2022/02/05 00:15:45;;;;;;;;;;;7.50;99.90;7.90;100061.00;;;;340447;28;87171;-86
2022/02/05 00:38:38;;;;;;;;;;;7.50;99.90;8.00;100070.00;;;;340460;28;84207;-85
2022/02/05 00:39:56;;;;;;;;;;;7.60;99.90;8.10;100066.00;;;;337932;28;83230;-86
2022/02/05 00:40:10;;;;;;;;;;;7.60;99.90;8.00;100065.00;;;;338970;28;84976;-85
2022/02/05 00:40:59;;;;;;;;;;;7.60;99.90;7.90;100066.00;;;;336242;28;88313;-85
2022/02/05 00:41:22;;;;;;;;;;;7.50;99.90;8.00;100060.00;;;;336647;28;83383;-85
2022/02/05 00:41:47;;;;;;;;;;;7.50;99.90;8.10;100067.00;;;;335239;29;84699;-85
2022/02/05 00:42:26;;;;;;;;;;;7.60;99.90;8.20;100074.00;;;;338819;28;83488;-86
2022/02/05 00:42:40;;;;;;;;;;;7.60;99.90;8.10;100067.00;;;;340310;28;84832;-85
2022/02/05 00:42:53;;;;;;;;;;;7.60;99.90;8.10;100063.00;;;;339176;28;83378;-86
2022/02/05 00:43:05;;;;;;;;;;;7.60;99.90;8.00;100061.00;;;;336596;28;84939;-85
2022/02/05 00:43:17;;;;;;;;;;;7.60;99.90;8.00;100068.00;;;;339185;28;82442;-85
2022/02/05 00:43:30;;;;;;;;;;;7.60;99.90;8.10;100060.00;;;;339041;28;86949;-86
2022/02/05 00:44:02;;;;;;;;;;;7.60;99.90;8.10;100063.00;;;;336955;28;82491;-86
2022/02/05 00:44:14;;;;;;;;;;;7.60;99.90;8.00;100058.00;;;;337315;28;85385;-85
2022/02/05 00:44:26;;;;;;;;;;;7.60;99.90;8.10;100058.00;;;;337942;28;82400;-85
2022/02/05 00:44:42;;;;;;;;;;;7.60;99.90;8.10;100073.00;;;;337434;28;88170;-85
2022/02/05 00:44:54;;;;;;;;;;;7.60;99.90;8.10;100060.00;;;;339213;28;83261;-85
2022/02/05 00:45:08;;;;;;;;;;;7.60;99.90;8.20;100060.00;;;;339084;28;87813;-85
2022/02/05 00:45:20;;;;;;;;;;;7.60;99.90;8.20;100052.00;;;;339271;28;83575;-85
2022/02/05 00:45:35;;;;;;;;;;;7.60;99.90;8.20;100064.00;;;;340544;28;85089;-86
2022/02/05 00:45:51;;;;;;;;;;;7.60;99.90;8.20;100065.00;;;;340614;28;83475;-85
2022/02/05 00:46:05;;;;;;;;;;;7.60;99.90;8.20;100064.00;;;;339089;28;85086;-86
2022/02/05 00:46:16;;;;;;;;;;;7.60;99.90;8.20;100056.00;;;;339072;28;84469;-85
2022/02/05 00:46:33;;;;;;;;;;;7.60;99.90;8.20;100063.00;;;;337396;28;84621;-85
2022/02/05 00:46:47;;;;;;;;;;;7.60;99.90;8.20;100059.00;;;;339088;28;83465;-85
2022/02/05 00:46:59;;;;;;;;;;;7.60;99.90;8.30;100062.00;;;;341235;28;85065;-85
2022/02/05 00:47:12;;;;;;;;;;;7.60;99.90;8.20;100058.00;;;;339340;28;83392;-85
2022/02/05 00:47:26;;;;;;;;;;;7.60;99.90;8.30;100065.00;;;;337688;28;83848;-85
2022/02/05 00:47:41;;;;;;;;;;;7.70;99.90;8.30;100066.00;;;;337844;28;83329;-85
2022/02/05 00:47:55;;;;;;;;;;;7.70;99.90;8.20;100055.00;;;;340164;28;87798;-85
2022/02/05 00:48:07;;;;;;;;;;;7.70;99.90;8.20;100067.00;;;;339247;28;82253;-84
2022/02/05 00:48:19;;;;;;;;;;;7.70;99.90;8.20;100059.00;;;;336315;28;90083;-85
2022/02/05 00:48:31;;;;;;;;;;;7.70;99.90;8.20;100063.00;;;;336690;28;82373;-86
2022/02/05 00:48:42;;;;;;;;;;;7.70;99.90;8.20;100067.00;;;;337769;28;87360;-86
2022/02/05 00:48:54;;;;;;;;;;;7.70;99.90;8.30;100063.00;;;;337864;28;82378;-85
2022/02/05 00:49:06;;;;;;;;;;;7.70;99.90;8.30;100066.00;;;;335204;29;86070;-85
2022/02/05 00:49:18;;;;;;;;;;;7.70;99.90;8.20;100061.00;;;;335356;29;83176;-85
2022/02/05 00:49:29;;;;;;;;;;;7.70;99.90;8.20;100065.00;;;;336001;28;85291;-84
2022/02/05 00:49:41;;;;;;;;;;;7.70;99.90;8.20;100057.00;;;;336577;28;82443;-85
2022/02/05 00:49:58;;;;;;;;;;;7.70;99.90;8.20;100067.00;;;;336407;28;87681;-86
2022/02/05 00:50:16;;;;;;;;;;;7.70;99.90;8.20;100066.00;;;;336187;28;82301;-85
2022/02/05 00:50:30;;;;;;;;;;;7.70;99.90;8.20;100065.00;;;;337475;28;84589;-85
2022/02/05 00:50:48;;;;;;;;;;;7.70;99.90;8.20;100062.00;;;;336577;28;83405;-85
2022/02/05 00:51:11;;;;;;;;;;;7.70;99.90;8.20;100067.00;;;;338283;28;85043;-85
2022/02/05 00:51:35;;;;;;;;;;;7.70;99.90;8.30;100065.00;;;;337852;28;82648;-85
2022/02/05 00:51:59;;;;;;;;;;;7.70;99.90;8.30;100065.00;;;;336592;28;84920;-86
2022/02/05 00:52:14;;;;;;;;;;;7.70;99.90;8.10;100076.00;;;;336839;28;83270;-85
2022/02/05 00:52:27;;;;;;;;;;;7.80;99.90;8.10;100062.00;;;;337000;28;85200;-85
2022/02/05 00:52:39;;;;;;;;;;;7.70;99.90;8.10;100066.00;;;;337019;28;83226;-85
2022/02/05 00:53:10;;;;;;;;;;;7.70;99.90;8.20;100067.00;;;;337728;28;88296;-85
2022/02/05 00:53:36;;;;;;;;;;;7.70;99.90;8.20;100065.00;;;;337772;28;84276;-85
2022/02/05 00:53:59;;;;;;;;;;;7.70;99.90;8.30;100063.00;;;;335457;29;82264;-86
2022/02/05 00:54:17;;;;;;;;;;;7.70;99.90;8.40;100068.00;;;;337556;28;84919;-85
2022/02/05 00:54:29;;;;;;;;;;;7.80;99.90;8.30;100065.00;;;;339295;28;82384;-86
2022/02/05 00:54:45;;;;;;;;;;;7.80;99.90;8.30;100070.00;;;;340412;28;87657;-85
2022/02/05 00:55:05;;;;;;;;;;;7.80;99.90;8.20;100064.00;;;;340641;28;83557;-85
2022/02/05 00:55:23;;;;;;;;;;;7.80;99.90;8.40;100066.00;;;;341864;28;84901;-86
2022/02/05 00:55:39;;;;;;;;;;;7.80;99.90;8.30;100062.00;;;;339796;28;82452;-86
2022/02/05 00:55:59;;;;;;;;;;;7.80;99.90;8.30;100062.00;;;;339275;28;83314;-85
2022/02/05 00:56:20;;;;;;;;;;;7.80;99.90;8.30;100054.00;;;;339299;28;83349;-85
2022/02/05 00:57:33;;;;;;;;;;;7.80;99.90;8.30;100060.00;;;;339159;28;84878;-85
2022/02/05 00:57:45;;;;;;;;;;;7.80;99.90;8.40;100057.00;;;;338605;28;83436;-86
2022/02/05 00:58:02;;;;;;;;;;;7.80;99.90;8.40;100063.00;;;;339126;28;85062;-86
2022/02/05 00:58:14;;;;;;;;;;;7.80;99.90;8.30;100060.00;;;;338385;28;83507;-85
2022/02/05 00:58:26;;;;;;;;;;;7.80;99.90;8.30;100064.00;;;;340092;28;85570;-85
2022/02/05 00:58:38;;;;;;;;;;;7.80;99.90;8.20;100060.00;;;;339132;28;82299;-85
2022/02/05 00:58:50;;;;;;;;;;;7.80;99.90;8.10;100054.00;;;;336450;28;85029;-86
2022/02/05 00:59:02;;;;;;;;;;;7.80;99.90;8.00;100058.00;;;;333473;29;83326;-85
2022/02/05 00:59:17;;;;;;;;;;;7.80;99.90;8.00;100059.00;;;;336483;28;88564;-85
2022/02/05 00:59:30;;;;;;;;;;;7.80;99.90;8.10;100061.00;;;;338262;28;83682;-85
2022/02/05 00:59:41;;;;;;;;;;;7.80;99.90;8.20;100057.00;;;;337808;28;86410;-85
2022/02/05 00:59:53;;;;;;;;;;;7.80;99.90;8.10;100054.00;;;;336681;28;83327;-85
2022/02/05 01:00:05;;;;;;;;;;;7.80;99.90;8.10;100055.00;;;;337455;28;84405;-86
2022/02/05 01:00:18;;;;;;;;;;;7.80;99.90;8.10;100054.00;;;;335320;29;83454;-85
2022/02/05 01:00:30;;;;;;;;;;;7.80;99.90;8.10;100056.00;;;;335333;29;85222;-85
2022/02/05 01:00:42;;;;;;;;;;;7.80;99.90;8.10;100051.00;;;;338445;28;83212;-85
2022/02/05 01:00:54;;;;;;;;;;;7.80;99.90;8.20;100057.00;;;;340581;28;85134;-85
2022/02/05 01:01:07;;;;;;;;;;;7.80;99.90;8.20;100051.00;;;;339340;28;83334;-86
2022/02/05 01:01:19;;;;;;;;;;;7.80;99.90;8.20;100063.00;;;;337753;28;87548;-84
2022/02/05 01:01:30;;;;;;;;;;;7.80;99.90;8.10;100059.00;;;;338790;28;83435;-86
2022/02/05 01:01:42;;;;;;;;;;;7.80;99.90;8.20;100056.00;;;;337254;28;86907;-86
2022/02/05 01:01:54;;;;;;;;;;;7.80;99.90;8.20;100049.00;;;;337935;28;83121;-86
2022/02/05 01:02:06;;;;;;;;;;;7.80;99.90;8.30;100053.00;;;;336534;28;83514;-85
2022/02/05 01:02:17;;;;;;;;;;;7.80;99.90;8.30;100055.00;;;;336204;28;82491;-86
2022/02/05 01:02:30;;;;;;;;;;;7.80;99.90;8.20;100053.00;;;;336433;28;84763;-85
2022/02/05 01:02:42;;;;;;;;;;;7.80;99.90;8.20;100056.00;;;;335357;29;83465;-85
2022/02/05 01:02:54;;;;;;;;;;;7.80;99.90;8.10;100060.00;;;;335268;29;85161;-85
2022/02/05 01:03:06;;;;;;;;;;;7.80;99.90;8.10;100054.00;;;;336587;28;83320;-85
2022/02/05 01:03:17;;;;;;;;;;;7.80;99.90;8.20;100056.00;;;;337707;28;87888;-86
2022/02/05 01:03:29;;;;;;;;;;;7.80;99.90;8.30;100054.00;;;;338743;28;83666;-86
2022/02/05 01:03:41;;;;;;;;;;;7.80;99.90;8.30;100056.00;;;;339860;28;85082;-85
2022/02/05 01:03:53;;;;;;;;;;;7.80;99.90;8.30;100058.00;;;;339292;28;83330;-85
2022/02/05 01:04:05;;;;;;;;;;;7.80;99.90;8.20;100065.00;;;;339066;28;86063;-85
2022/02/05 01:04:16;;;;;;;;;;;7.80;99.90;8.20;100057.00;;;;338308;28;83264;-85
2022/02/05 01:04:28;;;;;;;;;;;7.80;99.90;8.20;100065.00;;;;335698;28;86334;-85
2022/02/05 01:04:40;;;;;;;;;;;7.80;99.90;8.20;100048.00;;;;337840;28;82498;-86
2022/02/05 01:04:52;;;;;;;;;;;7.80;99.90;8.20;100057.00;;;;337822;28;87397;-85
2022/02/05 01:05:04;;;;;;;;;;;7.80;99.90;8.20;100060.00;;;;339362;28;83366;-85
2022/02/05 01:05:17;;;;;;;;;;;7.80;99.90;8.20;100064.00;;;;339205;28;84776;-86
2022/02/05 01:05:29;;;;;;;;;;;7.80;99.90;8.20;100062.00;;;;339075;28;82498;-85
2022/02/05 01:05:42;;;;;;;;;;;7.80;99.90;8.20;100058.00;;;;335022;28;87717;-86
2022/02/05 01:05:54;;;;;;;;;;;7.80;99.90;8.10;100060.00;;;;339103;28;83507;-85
2022/02/05 01:06:09;;;;;;;;;;;7.80;99.90;8.10;100060.00;;;;340366;28;87350;-86
2022/02/05 01:06:21;;;;;;;;;;;7.70;99.90;8.10;100066.00;;;;337858;28;83855;-85
2022/02/05 01:06:32;;;;;;;;;;;7.70;99.90;8.10;100065.00;;;;336607;28;86031;-86
2022/02/05 01:06:44;;;;;;;;;;;7.70;99.90;8.20;100059.00;;;;336590;28;83393;-86
2022/02/05 01:06:56;;;;;;;;;;;7.70;99.90;8.20;100062.00;;;;339156;28;88001;-86
2022/02/05 01:07:08;;;;;;;;;;;7.80;99.90;8.20;100059.00;;;;340496;28;83592;-86
2022/02/05 01:07:20;;;;;;;;;;;7.80;99.90;8.20;100061.00;;;;339118;28;85974;-86
2022/02/05 01:07:32;;;;;;;;;;;7.80;99.90;8.30;100067.00;;;;339520;28;83342;-86
2022/02/05 01:07:44;;;;;;;;;;;7.80;99.90;8.20;100064.00;;;;338876;28;85426;-86
2022/02/05 01:07:59;;;;;;;;;;;7.80;99.90;8.20;100061.00;;;;340503;28;83530;-85
2022/02/05 01:08:11;;;;;;;;;;;7.80;99.90;8.20;100066.00;;;;339087;28;86458;-85
2022/02/05 01:08:25;;;;;;;;;;;7.80;99.90;8.20;100065.00;;;;337843;28;83472;-85
2022/02/05 01:08:37;;;;;;;;;;;7.80;99.90;8.20;100067.00;;;;337061;28;88502;-86
2022/02/05 01:08:50;;;;;;;;;;;7.80;99.90;8.20;100064.00;;;;340606;28;82498;-86
2022/02/05 01:09:05;;;;;;;;;;;7.80;99.90;8.10;100076.00;;;;336071;28;88057;-86
2022/02/05 01:09:23;;;;;;;;;;;7.80;99.90;8.10;100078.00;;;;336615;28;82551;-86
2022/02/05 01:09:35;;;;;;;;;;;7.80;99.90;8.20;100069.00;;;;339062;28;87398;-85
2022/02/05 01:09:48;;;;;;;;;;;7.80;99.90;8.20;100068.00;;;;340569;28;83341;-86
2022/02/05 01:10:00;;;;;;;;;;;7.80;99.90;8.20;100065.00;;;;339106;28;88047;-86
2022/02/05 01:10:12;;;;;;;;;;;7.80;99.90;8.20;100064.00;;;;339254;28;82344;-86
2022/02/05 01:10:25;;;;;;;;;;;7.80;99.90;8.30;100070.00;;;;336079;28;83275;-86
2022/02/05 01:10:36;;;;;;;;;;;7.80;99.90;8.30;100065.00;;;;337460;28;83513;-86
2022/02/05 01:10:48;;;;;;;;;;;7.80;99.90;8.40;100065.00;;;;336457;28;84991;-86
2022/02/05 01:11:00;;;;;;;;;;;7.80;99.90;8.50;100059.00;;;;338966;28;83415;-86
2022/02/05 01:11:12;;;;;;;;;;;7.80;99.90;8.40;100056.00;;;;339093;28;88201;-86
2022/02/05 01:11:24;;;;;;;;;;;7.80;99.90;8.40;100062.00;;;;337866;28;83431;-86
2022/02/05 01:11:36;;;;;;;;;;;7.80;99.90;8.40;100058.00;;;;337877;28;84660;-86
2022/02/05 01:11:48;;;;;;;;;;;7.80;99.90;8.40;100062.00;;;;337864;28;83216;-85
2022/02/05 01:12:01;;;;;;;;;;;7.80;99.90;8.40;100060.00;;;;337904;28;84712;-86
2022/02/05 01:12:13;;;;;;;;;;;7.80;99.90;8.40;100068.00;;;;336498;28;83668;-86
2022/02/05 01:12:27;;;;;;;;;;;7.90;99.90;8.40;100061.00;;;;343096;28;87928;-86
2022/02/05 01:12:43;;;;;;;;;;;7.80;99.90;8.30;100053.00;;;;340601;28;83381;-86
2022/02/05 01:12:59;;;;;;;;;;;7.90;99.90;8.30;100059.00;;;;341676;28;84594;-86
2022/02/05 01:13:13;;;;;;;;;;;7.80;99.90;8.20;100060.00;;;;341994;28;82412;-86
2022/02/05 01:13:26;;;;;;;;;;;7.90;99.90;8.20;100064.00;;;;341543;28;86467;-86
2022/02/05 01:13:37;;;;;;;;;;;7.80;99.90;8.20;100049.00;;;;340876;28;82303;-86
2022/02/05 01:13:50;;;;;;;;;;;7.80;99.90;8.20;100060.00;;;;343254;28;84973;-86
2022/02/05 01:14:04;;;;;;;;;;;7.80;99.90;8.20;100061.00;;;;341971;28;83132;-86
2022/02/05 01:14:21;;;;;;;;;;;7.80;99.90;8.20;100069.00;;;;340512;28;87894;-85
2022/02/05 01:14:42;;;;;;;;;;;7.80;99.90;8.10;100068.00;;;;341690;28;83300;-86
2022/02/05 01:14:57;;;;;;;;;;;7.80;99.90;8.20;100063.00;;;;343086;28;88277;-86
2022/02/05 01:15:10;;;;;;;;;;;7.80;99.90;8.20;100065.00;;;;341963;28;82411;-86
2022/02/05 01:15:26;;;;;;;;;;;7.80;99.90;8.20;100063.00;;;;341861;28;83787;-85
2022/02/05 01:15:46;;;;;;;;;;;7.80;99.90;8.20;100062.00;;;;339319;28;83279;-85
2022/02/05 01:16:18;;;;;;;;;;;7.80;99.90;8.20;100062.00;;;;340588;28;83279;-86
2022/02/05 01:16:51;;;;;;;;;;;7.80;99.90;8.30;100073.00;;;;342621;28;87180;-85
2022/02/05 01:17:07;;;;;;;;;;;7.80;99.90;8.30;100079.00;;;;340558;28;83288;-86
2022/02/05 01:17:26;;;;;;;;;;;7.80;99.90;8.30;100076.00;;;;341810;28;88176;-85
2022/02/05 01:17:46;;;;;;;;;;;7.80;99.90;8.20;100067.00;;;;341847;28;83278;-86
2022/02/05 01:18:02;;;;;;;;;;;7.80;99.90;8.20;100077.00;;;;341620;28;84826;-85
2022/02/05 01:18:16;;;;;;;;;;;7.80;99.90;8.10;100073.00;;;;340497;28;83357;-85
2022/02/05 01:18:28;;;;;;;;;;;7.80;99.90;8.20;100074.00;;;;339085;28;88138;-85
2022/02/05 01:18:42;;;;;;;;;;;7.80;99.90;8.20;100082.00;;;;340447;28;83428;-85
2022/02/05 01:18:54;;;;;;;;;;;7.80;99.90;8.20;100076.00;;;;341863;28;84903;-85
2022/02/05 01:19:07;;;;;;;;;;;7.80;99.90;8.20;100069.00;;;;342061;28;82226;-85
2022/02/05 01:20:10;;;;;;;;;;;7.80;99.90;8.20;100078.00;;;;343269;28;85429;-85
2022/02/05 01:21:26;;;;;;;;;;;7.80;99.90;8.20;100074.00;;;;342006;28;82364;-85
2022/02/05 01:21:45;;;;;;;;;;;7.80;99.90;8.30;100081.00;;;;341896;28;85753;-86
2022/02/05 01:21:58;;;;;;;;;;;7.80;99.90;8.20;100080.00;;;;341080;28;82330;-85
2022/02/05 01:22:12;;;;;;;;;;;7.80;99.90;8.20;100075.00;;;;341775;28;86743;-85
2022/02/05 01:22:24;;;;;;;;;;;7.80;99.90;8.20;100084.00;;;;341620;28;83221;-85
2022/02/05 01:22:38;;;;;;;;;;;7.80;99.90;8.20;100080.00;;;;341625;28;85080;-85
2022/02/05 01:22:52;;;;;;;;;;;7.80;99.90;8.20;100084.00;;;;344664;28;83435;-85
2022/02/05 01:23:07;;;;;;;;;;;7.80;99.90;8.20;100082.00;;;;343160;28;88084;-85
2022/02/05 01:23:27;;;;;;;;;;;7.80;99.90;8.30;100078.00;;;;341809;28;82312;-85
2022/02/05 01:23:57;;;;;;;;;;;7.80;99.90;8.40;100077.00;;;;338055;28;82352;-85
2022/02/05 01:24:13;;;;;;;;;;;7.80;99.90;8.30;100085.00;;;;337765;28;85592;-85
2022/02/05 01:24:25;;;;;;;;;;;7.80;99.90;8.40;100077.00;;;;338077;28;83098;-85
2022/02/05 01:24:39;;;;;;;;;;;7.80;99.90;8.40;100079.00;;;;339200;28;85478;-85
2022/02/05 01:24:53;;;;;;;;;;;7.80;99.90;8.30;100070.00;;;;339303;28;83346;-85
2022/02/05 01:25:05;;;;;;;;;;;7.80;99.90;8.30;100077.00;;;;339206;28;86686;-85
2022/02/05 01:25:22;;;;;;;;;;;7.80;99.90;8.20;100078.00;;;;340664;28;83355;-85
2022/02/05 01:25:39;;;;;;;;;;;7.80;99.90;8.30;100078.00;;;;339748;28;86260;-85
2022/02/05 01:26:00;;;;;;;;;;;7.80;99.90;8.30;100078.00;;;;337937;28;83356;-85
2022/02/05 01:26:28;;;;;;;;;;;7.80;99.90;8.20;100077.00;;;;339275;28;85001;-85
2022/02/05 01:26:48;;;;;;;;;;;7.80;99.90;8.20;100076.00;;;;339182;28;82424;-85
2022/02/05 01:27:06;;;;;;;;;;;7.80;99.90;8.30;100076.00;;;;340400;28;88488;-85
2022/02/05 01:27:39;;;;;;;;;;;7.80;99.90;8.30;100075.00;;;;342039;28;83336;-85
2022/02/05 01:27:56;;;;;;;;;;;7.80;99.90;8.30;100079.00;;;;343228;28;85882;-86
2022/02/05 01:28:17;;;;;;;;;;;7.80;99.90;8.40;100079.00;;;;343361;28;82255;-85
2022/02/05 01:28:32;;;;;;;;;;;7.80;99.90;8.30;100085.00;;;;340740;28;87872;-85
2022/02/05 01:28:48;;;;;;;;;;;7.80;99.90;8.30;100080.00;;;;343367;28;83449;-85
2022/02/05 01:29:05;;;;;;;;;;;7.80;99.90;8.30;100083.00;;;;340373;28;86806;-85
2022/02/05 01:30:13;;;;;;;;;;;7.80;99.90;8.30;100086.00;;;;340568;28;83339;-85
2022/02/05 01:30:33;;;;;;;;;;;7.80;99.90;8.30;100077.00;;;;340462;28;86442;-85
2022/02/05 01:30:50;;;;;;;;;;;7.80;99.90;8.40;100081.00;;;;340479;28;83341;-86
2022/02/05 01:31:01;;;;;;;;;;;7.80;99.90;8.30;100074.00;;;;340267;28;84670;-85
2022/02/05 01:31:13;;;;;;;;;;;7.80;99.90;8.30;100073.00;;;;340581;28;83329;-86
2022/02/05 01:31:30;;;;;;;;;;;7.80;99.90;8.30;100077.00;;;;340276;28;87194;-86
2022/02/05 01:31:48;;;;;;;;;;;7.80;99.90;8.20;100080.00;;;;341333;28;83385;-85
2022/02/05 01:32:04;;;;;;;;;;;7.80;99.90;8.20;100079.00;;;;343037;28;87898;-85
2022/02/05 01:32:21;;;;;;;;;;;7.80;99.90;8.20;100082.00;;;;343272;28;82388;-85
2022/02/05 01:32:36;;;;;;;;;;;7.80;99.90;8.20;100076.00;;;;341823;28;84986;-85
2022/02/05 01:33:07;;;;;;;;;;;7.80;99.90;8.20;100080.00;;;;341818;28;83230;-85
2022/02/05 01:34:06;;;;;;;;;;;7.80;99.90;8.20;100088.00;;;;340862;28;85375;-85
2022/02/05 01:34:37;;;;;;;;;;;7.80;99.90;8.30;100076.00;;;;343322;28;83291;-85
2022/02/05 01:35:53;;;;;;;;;;;7.80;99.90;8.30;100083.00;;;;341997;28;83236;-86
2022/02/05 01:49:38;;;;;;;;;;;7.70;99.90;8.10;100109.00;;;;337893;28;83378;-86
2022/02/05 01:50:19;;;;;;;;;;;7.70;99.90;8.10;100106.00;;;;336472;28;84417;-86
2022/02/05 01:50:40;;;;;;;;;;;7.70;99.90;8.10;100103.00;;;;334065;29;83434;-85
2022/02/05 01:50:58;;;;;;;;;;;7.70;99.90;8.10;100099.00;;;;337866;28;85199;-86
2022/02/05 01:53:00;;;;;;;;;;;7.60;99.90;7.90;100107.00;;;;339213;28;84941;-86
2022/02/05 01:53:37;;;;;;;;;;;7.60;99.90;7.90;100104.00;;;;336501;28;86700;-86
2022/02/05 01:54:16;;;;;;;;;;;7.60;99.90;8.00;100106.00;;;;336690;28;83149;-86
2022/02/05 01:54:40;;;;;;;;;;;7.60;99.90;8.00;100105.00;;;;339118;28;85274;-86
2022/02/05 01:55:09;;;;;;;;;;;7.60;99.90;8.10;100110.00;;;;336580;28;83471;-85
2022/02/05 01:56:38;;;;;;;;;;;7.60;99.90;8.10;100099.00;;;;334482;29;83530;-85
2022/02/05 01:56:57;;;;;;;;;;;7.60;99.90;8.10;100104.00;;;;332548;29;87633;-86
2022/02/05 01:57:27;;;;;;;;;;;7.60;99.90;8.10;100106.00;;;;336423;28;84514;-86
2022/02/05 01:58:14;;;;;;;;;;;7.60;99.90;8.10;100095.00;;;;336437;28;85333;-85
2022/02/05 01:59:36;;;;;;;;;;;7.70;99.90;8.20;100101.00;;;;336573;28;84679;-86
2022/02/05 02:04:41;;;;;;;;;;;7.70;99.90;8.30;100100.00;;;;335363;29;83497;-86
2022/02/05 02:04:59;;;;;;;;;;;7.70;99.90;8.10;100098.00;;;;335121;29;83257;-86
2022/02/05 02:05:12;;;;;;;;;;;7.70;99.90;8.20;100110.00;;;;334181;29;83921;-86
2022/02/05 02:05:36;;;;;;;;;;;7.70;99.90;8.10;100093.00;;;;334193;29;83383;-86
2022/02/05 02:06:14;;;;;;;;;;;7.70;99.90;8.10;100095.00;;;;336717;28;83416;-85
2022/02/05 02:09:31;;;;;;;;;;;7.60;99.90;8.00;100095.00;;;;336695;28;82426;-85
2022/02/05 02:09:49;;;;;;;;;;;7.60;99.90;7.90;100093.00;;;;334963;29;82542;-84
2022/02/05 02:10:18;;;;;;;;;;;7.60;99.90;7.90;100096.00;;;;335279;29;85186;-85
2022/02/05 02:11:23;;;;;;;;;;;7.60;99.90;8.00;100092.00;;;;337848;28;87004;-85
2022/02/05 02:11:42;;;;;;;;;;;7.60;99.90;8.10;100096.00;;;;334085;29;83204;-85
2022/02/05 02:11:59;;;;;;;;;;;7.60;99.90;8.00;100091.00;;;;333940;29;85300;-86
2022/02/05 02:12:15;;;;;;;;;;;7.60;99.90;8.00;100091.00;;;;338034;28;82535;-86
2022/02/05 02:12:38;;;;;;;;;;;7.60;99.90;7.90;100086.00;;;;333930;29;84250;-85
2022/02/05 02:13:09;;;;;;;;;;;7.60;99.90;7.90;100091.00;;;;334111;29;82448;-86
2022/02/05 02:14:21;;;;;;;;;;;7.60;99.90;8.30;100088.00;;;;336603;28;84152;-86
2022/02/05 02:14:43;;;;;;;;;;;7.60;99.90;8.30;100088.00;;;;336394;28;82453;-86
2022/02/05 02:15:24;;;;;;;;;;;7.70;99.90;8.40;100081.00;;;;335556;29;82688;-85
2022/02/05 02:18:45;;;;;;;;;;;7.70;99.90;8.10;100088.00;;;;331419;29;83534;-86
2022/02/05 02:20:00;;;;;;;;;;;7.70;99.90;8.10;100090.00;;;;350997;27;74932;-85
2022/02/05 02:20:52;;;;;;;;;;;7.70;99.90;8.20;100083.00;;;;348885;27;85898;-86
2022/02/05 02:21:45;;;;;;;;;;;7.70;99.90;8.20;100085.00;;;;349112;27;86229;-85
2022/02/05 02:22:05;;;;;;;;;;;7.70;99.90;8.10;100091.00;;;;347867;28;82371;-85
2022/02/05 02:22:34;;;;;;;;;;;7.70;99.90;8.00;100093.00;;;;346445;28;84077;-86
2022/02/05 02:23:56;;;;;;;;;;;7.70;99.90;8.20;100087.00;;;;344975;28;82341;-86
2022/02/05 02:24:21;;;;;;;;;;;7.70;99.90;8.20;100086.00;;;;346125;28;87617;-85
2022/02/05 02:25:17;;;;;;;;;;;7.70;99.90;8.30;100088.00;;;;349037;27;85369;-85
2022/02/05 02:26:13;;;;;;;;;;;7.80;99.90;8.20;100087.00;;;;344761;28;83306;-85
2022/02/05 02:28:04;;;;;;;;;;;7.70;99.90;8.10;100094.00;;;;343272;28;83156;-86
2022/02/05 02:28:23;;;;;;;;;;;7.70;99.90;8.30;100094.00;;;;344582;28;83940;-86
2022/02/05 02:28:47;;;;;;;;;;;7.80;99.90;8.30;100083.00;;;;341843;28;83351;-86
2022/02/05 02:29:08;;;;;;;;;;;7.70;99.90;8.30;100085.00;;;;340381;28;85476;-85
2022/02/05 02:29:34;;;;;;;;;;;7.80;99.90;8.30;100090.00;;;;340530;28;83352;-86
2022/02/05 02:30:01;;;;;;;;;;;7.80;99.90;8.50;100088.00;;;;342816;28;85859;-85
2022/02/05 02:30:21;;;;;;;;;;;7.80;99.90;8.50;100084.00;;;;343598;28;82640;-85
2022/02/05 02:30:39;;;;;;;;;;;7.80;99.90;8.50;100089.00;;;;343589;28;83314;-86
2022/02/05 02:30:57;;;;;;;;;;;7.90;99.90;8.40;100085.00;;;;343406;28;82456;-85
2022/02/05 02:31:15;;;;;;;;;;;7.90;99.90;8.30;100088.00;;;;342650;28;85046;-86
2022/02/05 02:31:32;;;;;;;;;;;7.90;99.90;8.30;100091.00;;;;344500;28;82591;-86
2022/02/05 02:31:48;;;;;;;;;;;7.80;99.90;8.30;100090.00;;;;345695;28;86640;-88
2022/02/05 02:32:01;;;;;;;;;;;7.80;99.90;8.20;100089.00;;;;346187;28;82475;-85
2022/02/05 02:32:13;;;;;;;;;;;7.80;99.90;8.20;100091.00;;;;345930;28;86778;-86
2022/02/05 02:32:25;;;;;;;;;;;7.80;99.90;8.20;100092.00;;;;344892;28;82198;-86
2022/02/05 02:32:41;;;;;;;;;;;7.80;99.90;8.20;100090.00;;;;343720;28;83827;-86
2022/02/05 02:33:02;;;;;;;;;;;7.80;99.90;8.20;100087.00;;;;346181;28;82437;-84
2022/02/05 02:33:23;;;;;;;;;;;7.80;99.90;8.20;100088.00;;;;345947;28;84110;-86
2022/02/05 02:33:41;;;;;;;;;;;7.80;99.90;8.20;100088.00;;;;345645;28;82410;-87
2022/02/05 02:33:56;;;;;;;;;;;7.80;99.90;8.20;100083.00;;;;346109;28;84526;-85
2022/02/05 02:34:12;;;;;;;;;;;7.80;99.90;8.30;100084.00;;;;343424;28;82483;-86
2022/02/05 02:34:29;;;;;;;;;;;7.80;99.90;8.20;100089.00;;;;342161;28;85253;-84
2022/02/05 02:34:46;;;;;;;;;;;7.80;99.90;8.20;100086.00;;;;341939;28;82404;-86
2022/02/05 02:35:05;;;;;;;;;;;7.80;99.90;8.20;100096.00;;;;344013;28;83924;-85
2022/02/05 02:35:22;;;;;;;;;;;7.80;99.90;8.20;100098.00;;;;342233;28;82278;-84
2022/02/05 02:35:38;;;;;;;;;;;7.80;99.90;8.20;100096.00;;;;343389;28;83653;-85
2022/02/05 02:35:50;;;;;;;;;;;7.80;99.90;8.20;100097.00;;;;343636;28;82434;-86
2022/02/05 02:36:03;;;;;;;;;;;7.80;99.90;8.20;100094.00;;;;343553;28;83621;-85
2022/02/05 02:36:28;;;;;;;;;;;7.80;99.90;8.20;100090.00;;;;345942;28;82333;-85